Time,TemperatureF,DewpointF,PressureIn,WindDirection,WindDirectionDegrees,WindSpeedMPH,WindSpeedGustMPH,Humidity,HourlyPrecipIn,Conditions,Clouds,dailyrainin,SoftwareType,DateUTC
2013-03-01 00:01:00,49.0,49.0,30.49,NW,315,2.0,6.0,99,0.09,,,-99.99,,2013-03-01 08:01:00,
2013-03-01 00:11:00,49.0,49.0,30.49,NW,315,2.0,6.0,99,0.09,,,-99.99,,2013-03-01 08:11:00,
2013-03-01 00:21:00,49.0,49.0,30.49,NW,315,2.0,4.0,99,0.09,,,-99.99,,2013-03-01 08:21:00,
2013-03-01 00:31:00,49.0,49.0,30.49,NW,315,2.0,4.0,99,0.07,,,-99.99,,2013-03-01 08:31:00,
2013-03-01 00:42:00,49.0,49.0,30.49,NW,315,2.0,4.0,99,0.07,,,-99.99,,2013-03-01 08:42:00,
2013-03-01 00:53:00,49.0,49.0,30.47,SW,225,2.0,6.0,99,0.05,,,-99.99,,2013-03-01 08:53:00,
2013-03-01 01:01:00,50.0,50.0,30.46,East,90,4.0,11.0,99,0.02,,,-99.99,,2013-03-01 09:01:00,
2013-03-01 01:11:00,50.0,50.0,30.46,East,90,4.0,11.0,99,0.02,,,-99.99,,2013-03-01 09:11:00,
2013-03-01 01:21:00,50.0,50.0,30.47,NW,315,4.0,11.0,99,0.02,,,-99.99,,2013-03-01 09:21:00,
2013-03-01 01:31:00,50.0,50.0,30.47,NW,315,6.0,15.0,99,0.02,,,-99.99,,2013-03-01 09:31:00,
2013-03-01 01:41:00,50.0,50.0,30.47,NW,315,6.0,15.0,99,0.02,,,-99.99,,2013-03-01 09:41:00,
2013-03-01 01:52:00,50.0,50.0,30.47,North,360,3.0,11.0,99,0.02,,,-99.99,,2013-03-01 09:52:00,
2013-03-01 02:01:00,50.0,50.0,30.46,North,360,4.0,14.0,99,0.00,,,-99.99,,2013-03-01 10:01:00,
2013-03-01 02:11:00,50.0,50.0,30.46,North,360,4.0,14.0,99,0.00,,,-99.99,,2013-03-01 10:11:00,
2013-03-01 02:21:00,50.0,50.0,30.46,North,360,4.0,17.0,99,0.00,,,-99.99,,2013-03-01 10:21:00,
2013-03-01 02:31:00,50.0,50.0,30.47,NW,315,3.0,17.0,99,0.00,,,-99.99,,2013-03-01 10:31:00,
2013-03-01 02:41:00,50.0,50.0,30.47,NW,315,3.0,17.0,99,0.00,,,-99.99,,2013-03-01 10:41:00,
2013-03-01 02:52:00,50.0,50.0,30.46,WNW,292,4.0,13.0,99,0.00,,,-99.99,,2013-03-01 10:52:00,
2013-03-01 03:01:00,50.0,50.0,30.45,North,360,4.0,13.0,99,0.00,,,-99.99,,2013-03-01 11:01:00,
2013-03-01 03:11:00,50.0,50.0,30.45,North,360,4.0,13.0,99,0.00,,,-99.99,,2013-03-01 11:11:00,
2013-03-01 03:22:00,50.0,50.0,30.46,North,360,4.0,20.0,99,0.02,,,-99.99,,2013-03-01 11:22:00,
2013-03-01 03:31:00,50.0,50.0,30.45,NW,315,4.0,14.0,99,0.02,,,-99.99,,2013-03-01 11:31:00,
2013-03-01 03:41:00,50.0,50.0,30.45,NW,315,4.0,14.0,99,0.02,,,-99.99,,2013-03-01 11:41:00,
2013-03-01 03:52:00,50.0,50.0,30.45,SW,225,4.0,11.0,99,0.02,,,-99.99,,2013-03-01 11:52:00,
2013-03-01 04:01:00,50.0,50.0,30.45,NW,315,2.0,13.0,99,0.02,,,-99.99,,2013-03-01 12:01:00,
2013-03-01 04:11:00,50.0,50.0,30.45,NW,315,2.0,13.0,99,0.02,,,-99.99,,2013-03-01 12:11:00,
2013-03-01 04:21:00,50.0,50.0,30.46,NW,315,4.0,12.0,99,0.00,,,-99.99,,2013-03-01 12:21:00,
2013-03-01 04:32:00,50.0,50.0,30.45,WSW,248,3.0,10.0,99,0.00,,,-99.99,,2013-03-01 12:32:00,
2013-03-01 04:41:00,50.0,50.0,30.45,WSW,248,3.0,10.0,99,0.00,,,-99.99,,2013-03-01 12:41:00,
2013-03-01 04:52:00,50.0,50.0,30.46,North,360,5.0,13.0,99,0.00,,,-99.99,,2013-03-01 12:52:00,
2013-03-01 05:01:00,50.0,50.0,30.47,North,360,4.0,11.0,99,0.00,,,-99.99,,2013-03-01 13:01:00,
2013-03-01 05:11:00,50.0,50.0,30.47,North,360,4.0,11.0,99,0.00,,,-99.99,,2013-03-01 13:11:00,
2013-03-01 05:21:00,50.0,50.0,30.47,NW,315,4.0,12.0,99,0.00,,,-99.99,,2013-03-01 13:21:00,
2013-03-01 05:32:00,50.0,50.0,30.47,West,270,2.0,9.0,99,0.00,,,-99.99,,2013-03-01 13:32:00,
2013-03-01 05:41:00,50.0,50.0,30.47,West,270,2.0,9.0,99,0.00,,,-99.99,,2013-03-01 13:41:00,
2013-03-01 05:51:00,50.0,50.0,30.47,South,180,4.0,11.0,99,0.00,,,-99.99,,2013-03-01 13:51:00,
2013-03-01 06:01:00,50.0,50.0,30.47,NW,315,4.0,11.0,99,0.00,,,-99.99,,2013-03-01 14:01:00,
2013-03-01 06:11:00,50.0,50.0,30.47,NW,315,4.0,11.0,99,0.00,,,-99.99,,2013-03-01 14:11:00,
2013-03-01 06:21:00,50.0,50.0,30.48,NW,315,3.0,15.0,99,0.00,,,-99.99,,2013-03-01 14:21:00,
2013-03-01 06:32:00,50.0,50.0,30.48,East,90,4.0,11.0,99,0.00,,,-99.99,,2013-03-01 14:32:00,
2013-03-01 06:41:00,50.0,50.0,30.48,East,90,4.0,11.0,99,0.00,,,-99.99,,2013-03-01 14:41:00,
2013-03-01 06:52:00,50.0,50.0,30.49,NW,315,4.0,13.0,99,0.00,,,-99.99,,2013-03-01 14:52:00,
2013-03-01 07:01:00,50.0,50.0,30.50,NW,315,4.0,12.0,99,0.00,,,-99.99,,2013-03-01 15:01:00,
2013-03-01 07:11:00,50.0,50.0,30.49,NW,315,6.0,15.0,99,0.00,,,-99.99,,2013-03-01 15:11:00,
2013-03-01 07:21:00,50.0,50.0,30.49,NW,315,6.0,15.0,99,0.00,,,-99.99,,2013-03-01 15:21:00,
2013-03-01 07:31:00,50.0,49.0,30.50,SW,225,4.0,16.0,98,0.00,,,-99.99,,2013-03-01 15:31:00,
2013-03-01 07:42:00,50.0,49.0,30.50,SW,225,4.0,16.0,98,0.00,,,-99.99,,2013-03-01 15:42:00,
2013-03-01 07:52:00,50.0,49.0,30.50,North,360,2.0,15.0,98,0.00,,,-99.99,,2013-03-01 15:52:00,
2013-03-01 08:01:00,50.0,49.0,30.51,NW,315,4.0,14.0,98,0.00,,,-99.99,,2013-03-01 16:01:00,
2013-03-01 08:11:00,50.0,49.0,30.51,NW,315,4.0,14.0,98,0.00,,,-99.99,,2013-03-01 16:11:00,
2013-03-01 08:21:00,50.0,49.0,30.50,North,360,3.0,13.0,98,0.00,,,-99.99,,2013-03-01 16:21:00,
2013-03-01 08:31:00,50.0,49.0,30.51,SW,225,4.0,9.0,98,0.00,,,-99.99,,2013-03-01 16:31:00,
2013-03-01 08:41:00,50.0,49.0,30.51,SW,225,4.0,9.0,98,0.00,,,-99.99,,2013-03-01 16:41:00,
2013-03-01 08:52:00,50.0,50.0,30.51,North,360,2.0,11.0,99,0.00,,,-99.99,,2013-03-01 16:52:00,
2013-03-01 09:01:00,51.0,50.0,30.50,SW,225,5.0,14.0,97,0.00,,,-99.99,,2013-03-01 17:01:00,
2013-03-01 09:11:00,51.0,50.0,30.50,SW,225,5.0,14.0,97,0.00,,,-99.99,,2013-03-01 17:11:00,
2013-03-01 09:21:00,51.0,50.0,30.51,NW,315,2.0,17.0,96,0.01,,,-99.99,,2013-03-01 17:21:00,
2013-03-01 09:31:00,51.0,50.0,30.51,West,270,3.0,14.0,95,0.01,,,-99.99,,2013-03-01 17:31:00,
2013-03-01 09:41:00,51.0,50.0,30.51,West,270,3.0,14.0,95,0.01,,,-99.99,,2013-03-01 17:41:00,
2013-03-01 09:52:00,52.0,50.0,30.51,NW,315,4.0,12.0,94,0.01,,,-99.99,,2013-03-01 17:52:00,
2013-03-01 10:01:00,53.0,51.0,30.51,North,360,2.0,13.0,93,0.01,,,-99.99,,2013-03-01 18:01:00,
2013-03-01 10:11:00,53.0,51.0,30.51,North,360,2.0,13.0,93,0.01,,,-99.99,,2013-03-01 18:11:00,
2013-03-01 10:21:00,54.0,51.0,30.52,NW,315,8.0,18.0,89,0.02,,,-99.99,,2013-03-01 18:21:00,
2013-03-01 10:31:00,53.0,50.0,30.52,NE,45,4.0,10.0,90,0.02,,,-99.99,,2013-03-01 18:31:00,
2013-03-01 10:41:00,53.0,50.0,30.52,NE,45,4.0,10.0,90,0.02,,,-99.99,,2013-03-01 18:41:00,
2013-03-01 10:52:00,53.0,51.0,30.52,NE,45,5.0,12.0,92,0.02,,,-99.99,,2013-03-01 18:52:00,
2013-03-01 11:01:00,52.0,50.0,30.52,North,360,4.0,12.0,94,0.00,,,-99.99,,2013-03-01 19:01:00,
2013-03-01 11:11:00,52.0,50.0,30.52,North,360,4.0,12.0,94,0.00,,,-99.99,,2013-03-01 19:11:00,
2013-03-01 11:21:00,52.0,51.0,30.52,North,360,4.0,10.0,95,0.00,,,-99.99,,2013-03-01 19:21:00,
2013-03-01 11:31:00,54.0,51.0,30.52,North,360,4.0,9.0,91,0.00,,,-99.99,,2013-03-01 19:31:00,
2013-03-01 11:52:00,55.0,52.0,30.51,NE,45,4.0,11.0,88,0.00,,,-99.99,,2013-03-01 19:52:00,
2013-03-01 12:01:00,54.0,51.0,30.51,NW,315,4.0,12.0,91,0.00,,,-99.99,,2013-03-01 20:01:00,
2013-03-01 12:21:00,54.0,52.0,30.51,North,360,4.0,11.0,92,0.00,,,-99.99,,2013-03-01 20:21:00,
2013-03-01 12:31:00,54.0,51.0,30.51,NW,315,3.0,13.0,91,0.00,,,-99.99,,2013-03-01 20:31:00,
2013-03-01 12:41:00,54.0,51.0,30.51,NW,315,3.0,13.0,91,0.00,,,-99.99,,2013-03-01 20:41:00,
2013-03-01 12:52:00,58.0,53.0,30.51,SE,135,3.0,12.0,84,0.00,,,-99.99,,2013-03-01 20:52:00,
2013-03-01 13:01:00,57.0,53.0,30.51,NW,315,4.0,14.0,85,0.00,,,-99.99,,2013-03-01 21:01:00,
2013-03-01 13:11:00,55.0,52.0,30.50,SSE,158,4.0,15.0,89,0.00,,,-99.99,,2013-03-01 21:11:00,
2013-03-01 13:21:00,55.0,52.0,30.50,SSE,158,4.0,15.0,89,0.00,,,-99.99,,2013-03-01 21:21:00,
2013-03-01 13:31:00,55.0,52.0,30.51,NW,315,2.0,16.0,91,0.00,,,-99.99,,2013-03-01 21:31:00,
2013-03-01 13:41:00,55.0,52.0,30.51,NW,315,2.0,16.0,91,0.00,,,-99.99,,2013-03-01 21:41:00,
2013-03-01 13:52:00,54.0,51.0,30.50,NW,315,5.0,13.0,91,0.00,,,-99.99,,2013-03-01 21:52:00,
2013-03-01 14:01:00,54.0,52.0,30.50,WNW,292,3.0,12.0,93,0.00,,,-99.99,,2013-03-01 22:01:00,
2013-03-01 14:11:00,54.0,52.0,30.50,WNW,292,3.0,12.0,93,0.00,,,-99.99,,2013-03-01 22:11:00,
2013-03-01 14:21:00,54.0,52.0,30.49,NW,315,5.0,17.0,92,0.00,,,-99.99,,2013-03-01 22:21:00,
2013-03-01 14:31:00,54.0,52.0,30.50,NW,315,5.0,11.0,93,0.00,,,-99.99,,2013-03-01 22:31:00,
2013-03-01 14:41:00,54.0,52.0,30.50,NW,315,5.0,11.0,93,0.00,,,-99.99,,2013-03-01 22:41:00,
2013-03-01 14:51:00,54.0,52.0,30.50,West,270,2.0,15.0,94,0.00,,,-99.99,,2013-03-01 22:51:00,
2013-03-01 15:01:00,54.0,52.0,30.50,North,360,3.0,15.0,93,0.00,,,-99.99,,2013-03-01 23:01:00,
2013-03-01 15:11:00,54.0,52.0,30.50,North,360,3.0,15.0,93,0.00,,,-99.99,,2013-03-01 23:11:00,
2013-03-01 15:21:00,54.0,51.0,30.50,NW,315,4.0,14.0,91,0.00,,,-99.99,,2013-03-01 23:21:00,
2013-03-01 15:31:00,55.0,52.0,30.50,North,360,3.0,12.0,90,0.00,,,-99.99,,2013-03-01 23:31:00,
2013-03-01 15:41:00,55.0,52.0,30.50,North,360,3.0,12.0,90,0.00,,,-99.99,,2013-03-01 23:41:00,
2013-03-01 15:52:00,55.0,52.0,30.50,NE,45,4.0,13.0,89,0.00,,,-99.99,,2013-03-01 23:52:00,
2013-03-01 16:01:00,55.0,52.0,30.50,WNW,292,4.0,14.0,90,0.00,,,-99.99,,2013-03-02 00:01:00,
2013-03-01 16:11:00,55.0,52.0,30.50,WNW,292,4.0,14.0,90,0.00,,,-99.99,,2013-03-02 00:11:00,
2013-03-01 16:21:00,54.0,51.0,30.49,North,360,2.0,12.0,91,0.00,,,-99.99,,2013-03-02 00:21:00,
2013-03-01 16:31:00,54.0,52.0,30.50,North,360,2.0,10.0,93,0.00,,,-99.99,,2013-03-02 00:31:00,
2013-03-01 16:41:00,54.0,52.0,30.50,North,360,2.0,10.0,93,0.00,,,-99.99,,2013-03-02 00:41:00,
2013-03-01 16:52:00,54.0,52.0,30.49,NW,315,2.0,8.0,94,0.00,,,-99.99,,2013-03-02 00:52:00,
2013-03-01 17:01:00,54.0,52.0,30.49,NE,45,4.0,11.0,92,0.00,,,-99.99,,2013-03-02 01:01:00,
2013-03-01 17:11:00,54.0,52.0,30.49,NE,45,4.0,11.0,92,0.00,,,-99.99,,2013-03-02 01:11:00,
2013-03-01 17:21:00,54.0,52.0,30.49,North,360,2.0,15.0,92,0.00,,,-99.99,,2013-03-02 01:21:00,
2013-03-01 17:31:00,54.0,51.0,30.49,North,360,5.0,14.0,91,0.00,,,-99.99,,2013-03-02 01:31:00,
2013-03-01 17:41:00,54.0,51.0,30.49,North,360,5.0,14.0,91,0.00,,,-99.99,,2013-03-02 01:41:00,
2013-03-01 17:52:00,54.0,51.0,30.48,West,270,4.0,13.0,91,0.00,,,-99.99,,2013-03-02 01:52:00,
2013-03-01 18:01:00,53.0,51.0,30.48,West,270,3.0,13.0,92,0.00,,,-99.99,,2013-03-02 02:01:00,
2013-03-01 18:11:00,53.0,51.0,30.48,West,270,3.0,13.0,92,0.00,,,-99.99,,2013-03-02 02:11:00,
2013-03-01 18:21:00,53.0,51.0,30.48,North,360,4.0,11.0,93,0.00,,,-99.99,,2013-03-02 02:21:00,
2013-03-01 18:31:00,53.0,51.0,30.48,NE,45,3.0,11.0,94,0.00,,,-99.99,,2013-03-02 02:31:00,
2013-03-01 18:41:00,53.0,51.0,30.48,NE,45,3.0,11.0,94,0.00,,,-99.99,,2013-03-02 02:41:00,
2013-03-01 18:52:00,52.0,50.0,30.49,NW,315,3.0,8.0,94,0.00,,,-99.99,,2013-03-02 02:52:00,
2013-03-01 19:01:00,52.0,51.0,30.48,NW,315,2.0,8.0,96,0.00,,,-99.99,,2013-03-02 03:01:00,
2013-03-01 19:11:00,52.0,51.0,30.48,NW,315,2.0,8.0,96,0.00,,,-99.99,,2013-03-02 03:11:00,
2013-03-01 19:21:00,52.0,51.0,30.48,NW,315,2.0,6.0,96,0.00,,,-99.99,,2013-03-02 03:21:00,
2013-03-01 19:32:00,52.0,51.0,30.48,NW,315,2.0,6.0,96,0.00,,,-99.99,,2013-03-02 03:32:00,
2013-03-01 19:41:00,52.0,51.0,30.48,NW,315,2.0,6.0,96,0.00,,,-99.99,,2013-03-02 03:41:00,
2013-03-01 19:52:00,52.0,51.0,30.49,North,360,2.0,11.0,97,0.00,,,-99.99,,2013-03-02 03:52:00,
2013-03-01 20:01:00,52.0,51.0,30.48,North,360,1.0,5.0,98,0.00,,,-99.99,,2013-03-02 04:01:00,
2013-03-01 20:11:00,52.0,51.0,30.48,North,360,1.0,5.0,98,0.00,,,-99.99,,2013-03-02 04:11:00,
2013-03-01 20:21:00,52.0,51.0,30.49,WNW,292,4.0,9.0,98,0.00,,,-99.99,,2013-03-02 04:21:00,
2013-03-01 20:31:00,52.0,51.0,30.49,NE,45,2.0,11.0,97,0.00,,,-99.99,,2013-03-02 04:31:00,
2013-03-01 20:41:00,52.0,51.0,30.49,NE,45,2.0,11.0,97,0.00,,,-99.99,,2013-03-02 04:41:00,
2013-03-01 20:52:00,52.0,51.0,30.49,West,270,2.0,8.0,97,0.00,,,-99.99,,2013-03-02 04:52:00,
2013-03-01 21:01:00,52.0,51.0,30.49,NW,315,2.0,10.0,97,0.00,,,-99.99,,2013-03-02 05:01:00,
2013-03-01 21:12:00,52.0,51.0,30.49,NW,315,2.0,10.0,97,0.00,,,-99.99,,2013-03-02 05:12:00,
2013-03-01 21:22:00,52.0,51.0,30.48,NE,45,2.0,8.0,96,0.00,,,-99.99,,2013-03-02 05:22:00,
2013-03-01 21:31:00,52.0,51.0,30.48,NE,45,2.0,11.0,96,0.00,,,-99.99,,2013-03-02 05:31:00,
2013-03-01 21:41:00,52.0,51.0,30.48,NE,45,2.0,11.0,96,0.00,,,-99.99,,2013-03-02 05:41:00,
2013-03-01 21:52:00,51.0,50.0,30.48,North,360,2.0,6.0,96,0.00,,,-99.99,,2013-03-02 05:52:00,
2013-03-01 22:01:00,51.0,50.0,30.48,North,360,2.0,5.0,96,0.00,,,-99.99,,2013-03-02 06:01:00,
2013-03-01 22:11:00,51.0,50.0,30.48,North,360,2.0,5.0,96,0.00,,,-99.99,,2013-03-02 06:11:00,
2013-03-01 22:21:00,51.0,50.0,30.47,West,270,2.0,6.0,96,0.00,,,-99.99,,2013-03-02 06:21:00,
2013-03-01 22:31:00,51.0,50.0,30.48,West,270,1.0,8.0,97,0.00,,,-99.99,,2013-03-02 06:31:00,
2013-03-01 22:41:00,51.0,50.0,30.48,West,270,1.0,8.0,97,0.00,,,-99.99,,2013-03-02 06:41:00,
2013-03-01 22:52:00,51.0,50.0,30.47,SW,225,1.0,9.0,97,0.00,,,-99.99,,2013-03-02 06:52:00,
2013-03-01 23:01:00,51.0,50.0,30.47,NW,315,2.0,5.0,98,0.00,,,-99.99,,2013-03-02 07:01:00,
2013-03-01 23:11:00,51.0,50.0,30.47,NW,315,2.0,5.0,98,0.00,,,-99.99,,2013-03-02 07:11:00,
2013-03-01 23:21:00,51.0,50.0,30.47,NW,315,2.0,7.0,98,0.00,,,-99.99,,2013-03-02 07:21:00,
2013-03-01 23:32:00,51.0,50.0,30.46,NW,315,2.0,5.0,98,0.00,,,-99.99,,2013-03-02 07:32:00,
2013-03-01 23:41:00,51.0,50.0,30.46,NW,315,2.0,5.0,98,0.00,,,-99.99,,2013-03-02 07:41:00,
2013-03-01 23:52:00,51.0,51.0,30.46,North,360,2.0,7.0,99,0.00,,,-99.99,,2013-03-02 07:52:00,